TimeAWST,TemperatureF,Dew PointF,Humidity,Sea Level PressureIn,VisibilityMPH,Wind Direction,Wind SpeedMPH,Gust SpeedMPH,PrecipitationIn,Events,Conditions,WindDirDegrees,DateUTC
12:00 AM,92,59,23,29.60,,West,11.5,,,,,280,2012-12-18 16:00:00
12:00 AM,91.4,59.0,34,29.65,-9999.0,West,11.5,-,N/A,,Unknown,280,2012-12-18 16:00:00
1:00 AM,87.8,62.6,43,29.65,-9999.0,West,15.0,-,N/A,,Unknown,270,2012-12-18 17:00:00
2:00 AM,87,62,32,29.59,,West,15.0,,,,,270,2012-12-18 18:00:00
2:00 AM,86.0,60.8,43,29.65,-9999.0,West,15.0,-,N/A,,Unknown,270,2012-12-18 18:00:00
3:00 AM,86,61,32,29.59,,West,15.0,,,,,270,2012-12-18 19:00:00
3:00 AM,86.0,60.8,43,29.65,-9999.0,West,15.0,-,N/A,,Unknown,270,2012-12-18 19:00:00
4:00 AM,84.2,60.8,45,29.65,-9999.0,West,12.7,-,N/A,,Unknown,270,2012-12-18 20:00:00
5:00 AM,84,61,35,29.61,,West,10.4,,,,,270,2012-12-18 21:00:00
5:00 AM,84.2,60.8,45,29.68,-9999.0,West,10.4,-,N/A,,Unknown,270,2012-12-18 21:00:00
6:00 AM,84,62,37,29.63,,NNW,8.1,,,,,330,2012-12-18 22:00:00
6:00 AM,84.2,60.8,45,29.68,-9999.0,NNW,8.1,-,N/A,,Unknown,330,2012-12-18 22:00:00
7:00 AM,87.8,60.8,40,29.71,-9999.0,West,11.5,-,N/A,,Unknown,260,2012-12-18 23:00:00
8:00 AM,93,61,24,29.65,,WSW,12.7,,,,,250,2012-12-19 00:00:00
8:00 AM,93.2,60.8,34,29.71,-9999.0,WSW,12.7,-,N/A,,Unknown,250,2012-12-19 00:00:00
9:00 AM,98,60,20,29.65,,SW,10.4,,,,,220,2012-12-19 01:00:00
9:00 AM,98.6,60.8,29,29.71,-9999.0,SW,10.4,-,N/A,,Unknown,220,2012-12-19 01:00:00
10:00 AM,100.4,59.0,25,29.68,-9999.0,SSW,6.9,-,N/A,,Unknown,200,2012-12-19 02:00:00
11:00 AM,103,57,14,29.62,,SW,8.1,,,,,230,2012-12-19 03:00:00
11:00 AM,104.0,57.2,21,29.68,-9999.0,SW,8.1,-,N/A,,Unknown,230,2012-12-19 03:00:00
12:00 PM,105,57,13,29.59,,SSW,6.9,,,,,200,2012-12-19 04:00:00
12:00 PM,105.8,57.2,20,29.65,-9999.0,SSW,6.9,-,N/A,,Unknown,200,2012-12-19 04:00:00
1:00 PM,104.0,55.4,20,29.62,-9999.0,ESE,11.5,-,N/A,,Unknown,110,2012-12-19 05:00:00
1:54 PM,107.6,57.2,19,29.59,-9999.0,SE,18.4,-,N/A,,Unknown,130,2012-12-19 05:54:00
1:58 PM,105.8,59.0,22,29.59,-9999.0,East,25.3,-,N/A,,Unknown,90,2012-12-19 05:58:00
2:00 PM,107,57,12,29.55,,East,20.7,,,,,100,2012-12-19 06:00:00
2:00 PM,105.8,57.2,20,29.62,-9999.0,East,20.7,-,N/A,,Unknown,100,2012-12-19 06:00:00
3:00 PM,101,57,15,29.55,,South,15.0,,,,,190,2012-12-19 07:00:00
3:00 PM,102.2,57.2,22,29.62,-9999.0,South,15.0,26.5,N/A,,Unknown,190,2012-12-19 07:00:00
4:00 PM,102.2,59.0,24,29.59,-9999.0,WSW,11.5,-,N/A,,Unknown,250,2012-12-19 08:00:00
5:00 PM,101,56,14,29.53,,WNW,4.6,,,,,290,2012-12-19 09:00:00
5:00 PM,100.4,57.2,24,29.59,-9999.0,WNW,4.6,-,N/A,,Unknown,290,2012-12-19 09:00:00
6:00 PM,101,56,14,29.55,,NW,8.1,,,,,310,2012-12-19 10:00:00
6:00 PM,100.4,57.2,24,29.59,-9999.0,NW,8.1,-,N/A,,Unknown,310,2012-12-19 10:00:00
7:00 PM,96.8,57.2,27,29.62,-9999.0,NW,10.4,-,N/A,,Unknown,310,2012-12-19 11:00:00
8:00 PM,97,57,18,29.60,,SW,4.6,,,,,220,2012-12-19 12:00:00
8:00 PM,96.8,57.2,27,29.65,-9999.0,SW,4.6,-,N/A,,Unknown,220,2012-12-19 12:00:00
9:00 PM,94,58,21,29.62,,SW,16.1,,,,,220,2012-12-19 13:00:00
9:00 PM,95.0,59.0,30,29.68,-9999.0,SW,16.1,27.6,N/A,,Unknown,220,2012-12-19 13:00:00
10:00 PM,93.2,57.2,30,29.68,-9999.0,WSW,12.7,-,N/A,,Unknown,240,2012-12-19 14:00:00
11:00 PM,93,54,17,29.60,,West,8.1,,,,,270,2012-12-19 15:00:00
11:00 PM,93.2,53.6,26,29.65,-9999.0,West,8.1,-,N/A,,Unknown,270,2012-12-19 15:00:00